createdAt,value
2022-11-03T00:01:48.074Z,4.23
2022-11-03T00:04:52.313Z,4.20
2022-11-03T00:07:56.536Z,3.80
2022-11-03T00:11:09.812Z,4.70
2022-11-03T00:14:15.006Z,4.23
2022-11-03T00:17:19.284Z,3.87
2022-11-03T00:20:23.515Z,3.83
2022-11-03T00:23:35.635Z,3.40
2022-11-03T00:26:41.356Z,3.93
2022-11-03T00:29:46.170Z,3.80
2022-11-03T00:32:50.334Z,3.60
2022-11-03T00:35:59.026Z,3.67
2022-11-03T00:39:03.888Z,3.30
2022-11-03T00:42:09.635Z,4.40
2022-11-03T00:45:13.778Z,3.97
2022-11-03T00:48:40.545Z,4.07
2022-11-03T00:51:44.786Z,3.20
2022-11-03T00:54:54.370Z,3.37
2022-11-03T00:58:01.025Z,3.27
2022-11-03T01:01:07.935Z,3.57
2022-11-03T01:04:29.744Z,3.40
2022-11-03T01:07:34.206Z,3.77
2022-11-03T01:11:00.125Z,3.00
2022-11-03T01:14:06.395Z,3.57
2022-11-03T01:17:12.826Z,3.30
2022-11-03T01:20:17.186Z,3.20
2022-11-03T01:23:21.306Z,3.10
2022-11-03T01:26:26.026Z,4.03
2022-11-03T01:29:31.550Z,3.67
2022-11-03T01:32:36.084Z,3.00
2022-11-03T01:35:40.297Z,3.97
2022-11-03T01:38:45.035Z,3.37
2022-11-03T01:41:51.055Z,3.43
2022-11-03T01:44:56.856Z,2.93
2022-11-03T01:48:01.087Z,3.20
2022-11-03T01:51:11.035Z,3.30
2022-11-03T01:54:20.156Z,2.77
2022-11-03T01:57:29.078Z,3.77
2022-11-03T02:00:35.216Z,2.87
2022-11-03T02:03:49.476Z,3.10
2022-11-03T02:07:00.545Z,3.50
2022-11-03T02:10:04.925Z,3.77
2022-11-03T02:13:18.284Z,3.23
2022-11-03T02:16:27.257Z,3.17
2022-11-03T02:19:36.145Z,2.87
2022-11-03T02:23:05.355Z,3.00
2022-11-03T02:26:14.547Z,3.20
2022-11-03T02:29:18.876Z,3.20
2022-11-03T02:32:26.547Z,3.07
2022-11-03T02:35:37.325Z,3.30
2022-11-03T02:38:49.235Z,2.87
2022-11-03T02:41:58.677Z,3.63
2022-11-03T02:45:05.846Z,3.43
2022-11-03T02:48:11.203Z,3.60
2022-11-03T02:51:15.246Z,3.40
2022-11-03T02:54:25.386Z,3.03
2022-11-03T02:57:37.205Z,3.30
2022-11-03T03:00:50.497Z,3.03
2022-11-03T03:03:57.277Z,3.40
2022-11-03T03:07:03.595Z,3.47
2022-11-03T03:10:11.987Z,3.40
2022-11-03T03:13:24.626Z,3.43
2022-11-03T03:16:34.885Z,2.87
2022-11-03T03:19:49.863Z,3.00
2022-11-03T03:22:58.967Z,3.33
2022-11-03T03:26:06.865Z,3.60
2022-11-03T03:29:17.265Z,3.43
2022-11-03T03:32:24.727Z,3.10
2022-11-03T03:35:32.271Z,2.90
2022-11-03T03:38:41.425Z,3.10
2022-11-03T03:41:48.115Z,3.10
2022-11-03T03:44:56.496Z,3.33
2022-11-03T03:48:02.025Z,3.10
2022-11-03T03:51:13.625Z,3.53
2022-11-03T03:54:18.105Z,3.83
2022-11-03T03:57:24.926Z,3.17
2022-11-03T04:00:31.495Z,3.10
2022-11-03T04:03:35.626Z,3.33
2022-11-03T04:06:39.936Z,3.43
2022-11-03T04:09:44.245Z,2.90
2022-11-03T04:13:14.507Z,3.23
2022-11-03T04:16:37.190Z,3.23
2022-11-03T04:20:13.025Z,2.97
2022-11-03T04:23:17.595Z,3.23
2022-11-03T04:26:24.446Z,3.30
2022-11-03T04:29:28.595Z,3.30
2022-11-03T04:32:35.606Z,3.60
2022-11-03T04:35:39.813Z,3.40
2022-11-03T04:38:45.735Z,3.70
2022-11-03T04:41:50.485Z,2.87
2022-11-03T04:44:54.725Z,3.00
2022-11-03T04:48:02.273Z,2.80
2022-11-03T04:51:15.905Z,3.33
2022-11-03T04:54:23.969Z,3.23
2022-11-03T04:57:30.534Z,3.60
2022-11-03T05:00:34.666Z,2.97
2022-11-03T05:03:42.776Z,3.27
2022-11-03T05:06:52.263Z,3.20
2022-11-03T05:09:56.896Z,3.47
2022-11-03T05:13:02.386Z,3.63
2022-11-03T05:16:08.285Z,3.20
2022-11-03T05:19:20.786Z,3.80
2022-11-03T05:22:28.037Z,3.43
2022-11-03T05:25:40.826Z,3.33
2022-11-03T05:28:49.096Z,3.30
2022-11-03T05:31:55.336Z,3.50
2022-11-03T05:35:01.597Z,3.10
2022-11-03T05:38:14.346Z,3.30
2022-11-03T05:41:24.046Z,3.10
2022-11-03T05:44:33.836Z,4.20
2022-11-03T05:47:41.098Z,3.50
2022-11-03T05:50:47.127Z,3.60
2022-11-03T05:53:55.445Z,4.53
2022-11-03T05:57:00.114Z,3.90
2022-11-03T06:00:09.975Z,3.90
2022-11-03T06:03:18.536Z,3.87
2022-11-03T06:06:31.997Z,3.50
2022-11-03T06:09:36.845Z,3.97
2022-11-03T06:12:40.986Z,3.73
2022-11-03T06:15:48.845Z,4.03
2022-11-03T06:18:53.315Z,3.60
2022-11-03T06:22:03.897Z,2.97
2022-11-03T06:25:18.865Z,3.90
2022-11-03T06:28:27.077Z,6.30
2022-11-03T06:31:34.846Z,3.57
2022-11-03T06:34:46.698Z,3.75
2022-11-03T06:37:52.575Z,3.80
2022-11-03T06:40:57.225Z,3.92
2022-11-03T06:44:04.186Z,3.40
2022-11-03T06:47:18.726Z,5.35
2022-11-03T06:50:26.956Z,3.60
2022-11-03T06:53:35.245Z,3.80
2022-11-03T06:56:39.717Z,3.35
2022-11-03T06:59:44.006Z,3.75
2022-11-03T07:03:09.300Z,4.15
2022-11-03T07:06:24.811Z,3.50
2022-11-03T07:09:30.735Z,7.38
2022-11-03T07:12:34.915Z,8.15
2022-11-03T07:15:40.210Z,7.82
2022-11-03T07:18:45.174Z,7.82
2022-11-03T07:21:52.305Z,6.40
2022-11-03T07:25:01.465Z,6.38
2022-11-03T07:28:06.228Z,6.70
2022-11-03T07:31:18.226Z,6.30
2022-11-03T07:34:25.590Z,6.75
2022-11-03T07:37:29.865Z,6.43
2022-11-03T07:40:36.415Z,6.65
2022-11-03T07:43:41.268Z,6.00
2022-11-03T07:46:45.876Z,6.18
2022-11-03T07:49:50.877Z,5.47
2022-11-03T07:52:55.305Z,6.43
2022-11-03T07:56:01.526Z,6.70
2022-11-03T07:59:16.833Z,6.13
2022-11-03T08:02:32.562Z,6.72
2022-11-03T08:05:36.749Z,6.40
2022-11-03T08:08:42.425Z,7.25
2022-11-03T08:11:48.659Z,6.65
2022-11-03T08:14:52.904Z,6.18
2022-11-03T08:17:57.196Z,6.70
2022-11-03T08:21:01.496Z,6.88
2022-11-03T08:24:06.397Z,6.45
2022-11-03T08:27:12.140Z,6.57
2022-11-03T08:30:16.717Z,6.97
2022-11-03T08:33:21.104Z,6.70
2022-11-03T08:36:25.506Z,6.72
2022-11-03T08:39:31.603Z,5.32
2022-11-03T08:42:37.425Z,6.45
2022-11-03T08:45:41.625Z,6.80
2022-11-03T08:48:45.768Z,8.13
2022-11-03T08:51:50.095Z,6.95
2022-11-03T08:54:54.473Z,7.43
2022-11-03T08:58:00.185Z,7.13
2022-11-03T09:01:04.696Z,6.85
2022-11-03T09:04:09.081Z,7.88
2022-11-03T09:07:13.777Z,7.15
2022-11-03T09:10:18.628Z,7.22
2022-11-03T09:13:25.285Z,7.57
2022-11-03T09:16:29.405Z,7.28
2022-11-03T09:19:33.745Z,7.05
2022-11-03T09:22:37.955Z,8.55
2022-11-03T09:25:42.416Z,8.68
2022-11-03T09:28:49.667Z,9.25
2022-11-03T09:31:54.316Z,11.10
2022-11-03T09:34:58.535Z,9.77
2022-11-03T09:38:02.836Z,9.27
2022-11-03T09:41:18.739Z,8.68
2022-11-03T09:44:34.995Z,8.38
2022-11-03T09:47:41.805Z,8.90
2022-11-03T09:50:46.126Z,8.45
2022-11-03T09:53:50.505Z,8.38
2022-11-03T09:56:54.798Z,7.10
2022-11-03T10:00:00.889Z,7.88
2022-11-03T10:03:06.405Z,8.20
2022-11-03T10:06:12.905Z,8.40
2022-11-03T10:09:20.985Z,8.20
2022-11-03T10:12:27.106Z,8.35
2022-11-03T10:15:32.947Z,7.85
2022-11-03T10:18:38.846Z,9.05
2022-11-03T10:21:44.365Z,9.10
2022-11-03T10:24:55.885Z,9.73
2022-11-03T10:28:17.825Z,10.23
2022-11-03T10:31:23.565Z,8.60
2022-11-03T10:34:34.196Z,9.45
2022-11-03T10:37:40.126Z,9.70
2022-11-03T10:40:48.477Z,8.82
2022-11-03T10:44:08.505Z,8.48
2022-11-03T10:47:25.877Z,8.30
2022-11-03T10:50:30.716Z,9.25
2022-11-03T10:53:38.126Z,9.35
2022-11-03T10:56:44.006Z,12.43
2022-11-03T10:59:50.845Z,9.90
2022-11-03T11:03:02.788Z,10.50
2022-11-03T11:06:07.307Z,8.95
2022-11-03T11:09:14.945Z,10.35
2022-11-03T11:12:21.055Z,9.77
2022-11-03T11:15:41.285Z,8.77
2022-11-03T11:19:14.024Z,9.43
2022-11-03T11:22:24.765Z,8.25
2022-11-03T11:26:08.395Z,9.73
2022-11-03T11:29:43.625Z,9.65
2022-11-03T11:33:01.800Z,8.93
2022-11-03T11:36:31.556Z,9.10
2022-11-03T11:39:48.908Z,8.90
2022-11-03T11:43:28.100Z,8.18
2022-11-03T11:46:42.795Z,8.70
2022-11-03T11:49:47.067Z,8.68
2022-11-03T11:52:59.616Z,9.30
2022-11-03T11:56:04.758Z,10.13
2022-11-03T11:59:23.963Z,8.25
2022-11-03T12:02:32.364Z,8.60
2022-11-03T12:05:37.595Z,8.05
2022-11-03T12:08:44.498Z,8.43
2022-11-03T12:11:55.401Z,8.45
2022-11-03T12:15:00.606Z,7.78
2022-11-03T12:18:39.938Z,7.75
2022-11-03T12:21:50.136Z,9.98
2022-11-03T12:24:56.551Z,9.10
2022-11-03T12:28:00.779Z,9.00
2022-11-03T12:31:05.869Z,9.27
2022-11-03T12:34:12.605Z,9.77
2022-11-03T12:37:17.085Z,9.70
2022-11-03T12:40:23.069Z,8.70
2022-11-03T12:43:27.369Z,9.23
2022-11-03T12:46:31.715Z,8.57
2022-11-03T12:49:36.816Z,8.52
2022-11-03T12:52:41.693Z,8.00
2022-11-03T12:55:47.286Z,8.65
2022-11-03T12:58:53.393Z,8.98
2022-11-03T13:01:57.922Z,9.25
2022-11-03T13:05:02.285Z,10.20
2022-11-03T13:08:06.771Z,10.13
2022-11-03T13:11:26.198Z,8.60
2022-11-03T13:14:35.880Z,9.20
2022-11-03T13:18:07.275Z,8.68
2022-11-03T13:21:04.625Z,8.65
2022-11-03T13:24:09.385Z,8.15
2022-11-03T13:27:15.095Z,7.97
2022-11-03T13:30:19.546Z,8.07
2022-11-03T13:33:23.725Z,8.07
2022-11-03T13:36:28.041Z,7.93
2022-11-03T13:39:32.263Z,7.40
2022-11-03T13:42:38.344Z,8.13
2022-11-03T13:45:42.675Z,7.85
2022-11-03T13:52:11.277Z,7.63
2022-11-03T14:05:31.746Z,7.50
2022-11-03T14:08:35.987Z,8.40
2022-11-03T14:12:02.919Z,8.07
2022-11-03T14:15:11.494Z,7.78
2022-11-03T14:18:15.824Z,7.50
2022-11-03T14:21:20.102Z,7.68
2022-11-03T14:24:24.357Z,7.93
2022-11-03T14:27:29.103Z,7.47
2022-11-03T14:30:34.965Z,8.48
2022-11-03T14:33:41.804Z,8.73
2022-11-03T14:36:46.177Z,9.05
2022-11-03T14:39:50.456Z,9.68
2022-11-03T14:42:53.537Z,8.13
2022-11-03T14:45:59.467Z,9.10
2022-11-03T14:49:03.748Z,10.77
2022-11-03T14:52:09.914Z,9.02
2022-11-03T14:55:14.125Z,8.75
2022-11-03T14:58:18.345Z,9.18
2022-11-03T15:01:26.611Z,9.30
2022-11-03T15:04:31.085Z,9.45
2022-11-03T15:07:35.454Z,9.18
2022-11-03T15:10:39.614Z,9.13
2022-11-03T15:13:47.108Z,9.75
2022-11-03T15:16:54.226Z,10.15
2022-11-03T15:19:58.446Z,9.60
2022-11-03T15:26:27.368Z,12.43
2022-11-03T15:29:31.566Z,12.13
2022-11-03T15:32:37.445Z,10.23
2022-11-03T15:35:41.884Z,12.70
2022-11-03T15:38:46.306Z,12.32
2022-11-03T15:41:50.573Z,15.02
2022-11-03T15:44:54.727Z,14.68
2022-11-03T15:48:00.837Z,16.33
2022-11-03T15:51:05.275Z,14.00
2022-11-03T15:54:09.848Z,12.30
2022-11-03T16:00:23.296Z,12.25
2022-11-03T16:03:29.092Z,13.57
2022-11-03T16:07:06.046Z,14.88
2022-11-03T16:09:58.108Z,19.33
2022-11-03T16:13:02.240Z,23.17
2022-11-03T16:16:07.162Z,24.23
2022-11-03T16:19:13.015Z,23.92
2022-11-03T16:22:17.550Z,28.02
2022-11-03T16:25:21.865Z,27.92
2022-11-03T16:28:26.159Z,27.65
2022-11-03T16:31:30.410Z,28.85
2022-11-03T16:34:36.136Z,27.23
2022-11-03T16:37:40.247Z,27.35
2022-11-03T16:40:44.740Z,28.17
2022-11-03T16:43:50.110Z,27.05
2022-11-03T16:46:54.388Z,26.55
2022-11-03T16:50:00.056Z,25.85
2022-11-03T16:53:04.836Z,25.10
2022-11-03T16:56:09.787Z,22.80
2022-11-03T16:59:14.177Z,21.55
2022-11-03T17:02:18.709Z,21.65
2022-11-03T17:05:24.768Z,20.73
2022-11-03T17:08:51.703Z,17.20
2022-11-03T17:11:53.696Z,16.53
2022-11-03T17:14:58.181Z,16.57
2022-11-03T17:18:02.629Z,18.13
2022-11-03T17:21:08.660Z,18.57
2022-11-03T17:24:13.657Z,19.60
2022-11-03T17:27:21.008Z,17.73
2022-11-03T17:30:27.128Z,19.77
2022-11-03T17:33:32.316Z,17.33
2022-11-03T17:36:38.138Z,17.13
2022-11-03T17:39:42.618Z,14.83
2022-11-03T17:42:46.875Z,13.93
2022-11-03T17:45:51.576Z,17.87
2022-11-03T17:48:55.868Z,19.93
2022-11-03T17:52:04.044Z,14.83
2022-11-03T17:55:18.816Z,15.87
2022-11-03T17:58:29.666Z,15.93
2022-11-03T18:01:34.250Z,15.20
2022-11-03T18:04:38.655Z,14.20
2022-11-03T18:07:44.439Z,13.33
2022-11-03T18:10:51.550Z,13.93
2022-11-03T18:13:54.904Z,15.13
2022-11-03T18:16:59.818Z,15.90
2022-11-03T18:20:04.586Z,15.87
2022-11-03T18:23:17.505Z,18.43
2022-11-03T18:26:23.726Z,16.73
2022-11-03T18:29:27.824Z,16.93
2022-11-03T18:32:37.006Z,13.90
2022-11-03T18:35:43.445Z,14.20
2022-11-03T18:38:50.305Z,14.63
2022-11-03T18:41:54.904Z,12.17
2022-11-03T18:45:02.705Z,12.50
2022-11-03T18:48:07.916Z,11.33
2022-11-03T18:51:12.804Z,12.27
2022-11-03T18:54:22.197Z,12.00
2022-11-03T18:57:27.095Z,10.57
2022-11-03T19:00:31.505Z,10.97
2022-11-03T19:03:35.864Z,12.60
2022-11-03T19:06:40.165Z,12.63
2022-11-03T19:09:46.997Z,12.77
2022-11-03T19:12:51.288Z,12.17
2022-11-03T19:15:55.884Z,12.30
2022-11-03T19:19:00.284Z,11.07
2022-11-03T19:22:04.542Z,12.00
2022-11-03T19:25:11.106Z,10.60
2022-11-03T19:28:18.009Z,10.80
2022-11-03T19:31:27.315Z,10.27
2022-11-03T19:34:35.325Z,9.17
2022-11-03T19:37:40.031Z,10.20
2022-11-03T19:41:00.383Z,9.87
2022-11-03T19:44:10.655Z,9.40
2022-11-03T19:47:18.115Z,9.60
2022-11-03T19:50:25.654Z,10.17
2022-11-03T19:53:31.686Z,10.40
2022-11-03T19:56:37.475Z,10.67
2022-11-03T19:59:42.884Z,10.20
2022-11-03T20:02:47.362Z,11.93
2022-11-03T20:05:55.303Z,11.17
2022-11-03T20:08:59.836Z,11.00
2022-11-03T20:12:08.044Z,10.00
2022-11-03T20:15:18.404Z,10.37
2022-11-03T20:18:22.757Z,9.33
2022-11-03T20:21:33.060Z,9.90
2022-11-03T20:24:39.194Z,9.73
2022-11-03T20:27:47.114Z,9.47
2022-11-03T20:30:52.044Z,9.97
2022-11-03T20:33:56.363Z,9.63
2022-11-03T20:37:05.625Z,10.53
2022-11-03T20:40:15.914Z,10.53
2022-11-03T20:43:27.784Z,10.27
2022-11-03T20:46:34.598Z,10.17
2022-11-03T20:49:38.904Z,9.77
2022-11-03T20:52:45.004Z,9.73
2022-11-03T20:55:51.180Z,9.63
2022-11-03T20:58:57.687Z,10.10
2022-11-03T21:02:02.238Z,9.17
2022-11-03T21:05:14.154Z,10.70
2022-11-03T21:08:19.894Z,10.43
2022-11-03T21:11:28.226Z,9.13
2022-11-03T21:14:34.654Z,8.93
2022-11-03T21:17:58.959Z,9.30
2022-11-03T21:21:10.991Z,10.13
2022-11-03T21:24:15.804Z,9.70
2022-11-03T21:27:20.235Z,9.77
2022-11-03T21:30:26.123Z,9.93
2022-11-03T21:33:30.441Z,10.00
2022-11-03T21:36:37.554Z,10.33
2022-11-03T21:39:41.936Z,9.93
2022-11-03T21:43:04.436Z,10.20
2022-11-03T21:46:12.806Z,9.37
2022-11-03T21:49:37.214Z,10.50
2022-11-03T21:52:46.875Z,10.27
2022-11-03T21:55:53.880Z,10.30
2022-11-03T21:59:00.010Z,9.63
2022-11-03T22:02:09.863Z,9.63
2022-11-03T22:05:14.236Z,10.07
2022-11-03T22:08:18.466Z,10.97
2022-11-03T22:11:25.535Z,11.87
2022-11-03T22:14:49.775Z,10.80
2022-11-03T22:18:03.944Z,10.37
2022-11-03T22:21:27.926Z,11.13
2022-11-03T22:24:53.084Z,9.90
2022-11-03T22:27:59.145Z,10.50
2022-11-03T22:31:23.322Z,10.20
2022-11-03T22:34:46.245Z,10.33
2022-11-03T22:38:02.176Z,10.27
2022-11-03T22:41:24.157Z,9.83
2022-11-03T22:44:45.463Z,10.03
2022-11-03T22:47:57.606Z,11.33
2022-11-03T22:51:04.976Z,10.60
2022-11-03T22:54:11.848Z,10.33
2022-11-03T22:57:19.105Z,10.57
2022-11-03T23:00:23.785Z,10.50
2022-11-03T23:03:33.015Z,11.37
2022-11-03T23:06:42.954Z,11.67
2022-11-03T23:09:52.767Z,11.83
2022-11-03T23:12:57.329Z,11.13
2022-11-03T23:16:10.639Z,12.50
2022-11-03T23:19:34.138Z,13.00
2022-11-03T23:22:40.169Z,11.47
2022-11-03T23:25:45.387Z,10.20
2022-11-03T23:28:49.694Z,11.37
2022-11-03T23:31:54.278Z,11.60
2022-11-03T23:34:58.508Z,10.70
2022-11-03T23:38:04.259Z,10.90
2022-11-03T23:41:10.478Z,11.43
2022-11-03T23:44:16.269Z,12.60
2022-11-03T23:47:37.630Z,12.37
2022-11-03T23:50:41.806Z,11.83
2022-11-03T23:53:48.400Z,11.50
2022-11-03T23:57:09.611Z,11.90
